Time;durP1;ratioP1;P1;durP2;ratioP2;P2;SDS_P1;SDS_P2;PMS_P1;PMS_P2;Temp;Humidity;BMP_temperature;BMP_pressure;BME280_temperature;BME280_humidity;BME280_pressure;Samples;Min_cycle;Max_cycle;Signal;HPM_P1;HPM_P2
2021/05/09 00:00:41;;;;;;;1999.90;999.90;;;13.60;99.90;;;;;;5052034;28;20174;-68
2021/05/09 00:03:07;;;;;;;1999.90;999.90;;;13.50;99.90;;;;;;5052053;28;20624;-68
2021/05/09 00:05:32;;;;;;;1999.90;999.90;;;13.50;99.90;;;;;;5054058;28;20420;-69
2021/05/09 00:07:58;;;;;;;1999.90;999.90;;;13.50;99.90;;;;;;5054046;28;20679;-69
2021/05/09 00:10:25;;;;;;;1999.90;999.90;;;13.40;99.90;;;;;;5056682;28;20571;-68
2021/05/09 00:12:50;;;;;;;1999.90;999.90;;;13.40;99.90;;;;;;5052072;28;20481;-70
2021/05/09 00:15:20;;;;;;;1999.90;999.90;;;13.40;99.90;;;;;;5056112;28;20402;-69
2021/05/09 00:17:46;;;;;;;1999.90;999.90;;;13.30;99.90;;;;;;5056120;28;20184;-69
2021/05/09 00:20:12;;;;;;;1999.90;999.90;;;13.30;99.90;;;;;;5054791;28;20522;-67
2021/05/09 00:22:38;;;;;;;1999.90;999.90;;;13.30;99.90;;;;;;5051691;28;20180;-69
2021/05/09 00:25:04;;;;;;;1999.90;999.90;;;13.30;99.90;;;;;;5051618;28;20411;-68
2021/05/09 00:27:30;;;;;;;1999.90;999.90;;;13.20;99.90;;;;;;5051730;28;20212;-68
2021/05/09 00:29:56;;;;;;;1999.90;999.90;;;13.30;99.90;;;;;;5053249;28;20483;-68
2021/05/09 00:32:21;;;;;;;1999.90;999.90;;;13.30;99.90;;;;;;5055867;28;20280;-68
2021/05/09 00:34:47;;;;;;;1999.90;999.90;;;13.30;99.90;;;;;;5055561;28;20160;-68
2021/05/09 00:37:12;;;;;;;1999.90;999.90;;;13.30;99.90;;;;;;5059468;28;20660;-68
2021/05/09 00:39:38;;;;;;;1999.90;999.90;;;13.20;99.90;;;;;;5057610;28;20314;-68
2021/05/09 00:42:05;;;;;;;1999.90;999.90;;;13.30;99.90;;;;;;5055738;28;20205;-67
2021/05/09 00:44:32;;;;;;;1999.90;999.90;;;13.20;99.90;;;;;;5055591;28;20545;-68
2021/05/09 00:47:00;;;;;;;1999.90;999.90;;;13.20;99.90;;;;;;5056871;28;20460;-68
2021/05/09 00:49:26;;;;;;;1999.90;999.90;;;13.10;99.90;;;;;;5055692;28;20919;-68
2021/05/09 00:51:52;;;;;;;1999.90;999.90;;;13.20;99.90;;;;;;5057409;28;20435;-70
2021/05/09 00:54:22;;;;;;;1999.90;999.90;;;13.10;99.90;;;;;;5056680;28;20545;-69
2021/05/09 00:56:48;;;;;;;1999.90;999.90;;;13.00;99.90;;;;;;5053792;28;20177;-68
2021/05/09 00:59:16;;;;;;;1999.90;999.90;;;13.00;99.90;;;;;;5055360;28;20438;-69
2021/05/09 01:01:44;;;;;;;1999.90;999.90;;;12.90;99.90;;;;;;5055357;28;20435;-69
2021/05/09 01:04:12;;;;;;;1999.90;999.90;;;12.90;99.90;;;;;;5055573;28;20403;-70
2021/05/09 01:06:40;;;;;;;1999.90;999.90;;;12.90;99.90;;;;;;5057681;28;20406;-69
2021/05/09 01:09:06;;;;;;;1999.90;999.90;;;12.60;99.90;;;;;;5055226;28;20430;-68
2021/05/09 01:11:32;;;;;;;1999.90;999.90;;;12.50;99.90;;;;;;5055830;28;20397;-69
2021/05/09 01:13:57;;;;;;;1999.90;999.90;;;12.50;99.90;;;;;;5058672;28;20891;-69
2021/05/09 01:16:23;;;;;;;1999.90;999.90;;;12.50;99.90;;;;;;5057256;28;20161;-68
2021/05/09 01:18:48;;;;;;;1999.90;999.90;;;12.50;99.90;;;;;;5057451;28;20292;-70
2021/05/09 01:21:14;;;;;;;1999.90;999.90;;;12.50;99.90;;;;;;5058481;28;20196;-70
2021/05/09 01:23:40;;;;;;;1999.90;999.90;;;12.50;99.90;;;;;;5057216;28;20214;-68
2021/05/09 01:26:05;;;;;;;1999.90;999.90;;;12.60;99.90;;;;;;5054645;28;20640;-68
2021/05/09 01:28:31;;;;;;;1999.90;999.90;;;12.60;99.90;;;;;;5054764;28;20195;-68
2021/05/09 01:30:56;;;;;;;1999.90;999.90;;;12.50;99.90;;;;;;5054631;28;20289;-67
2021/05/09 01:33:22;;;;;;;1999.90;999.90;;;12.50;99.90;;;;;;5054685;28;20175;-68
2021/05/09 01:35:48;;;;;;;1999.90;999.90;;;12.40;99.90;;;;;;5054369;28;20160;-67
2021/05/09 01:38:13;;;;;;;1999.90;999.90;;;12.50;99.90;;;;;;5054558;28;20219;-68
2021/05/09 01:40:39;;;;;;;1999.90;999.90;;;12.40;99.90;;;;;;5055745;28;20165;-70
2021/05/09 01:43:04;;;;;;;1999.90;999.90;;;12.30;99.90;;;;;;5056179;28;20182;-70
2021/05/09 01:45:30;;;;;;;1999.90;999.90;;;12.30;99.90;;;;;;5056397;28;20634;-68
2021/05/09 01:47:56;;;;;;;1999.90;999.90;;;12.20;99.90;;;;;;5054383;28;20187;-68
2021/05/09 01:50:21;;;;;;;1999.90;999.90;;;12.30;99.90;;;;;;5054404;28;20861;-68
2021/05/09 01:52:47;;;;;;;1999.90;999.90;;;12.20;99.90;;;;;;5056669;28;20167;-68
2021/05/09 01:55:17;;;;;;;1999.90;999.90;;;12.10;99.90;;;;;;5054075;28;20193;-68
2021/05/09 01:57:43;;;;;;;1999.90;999.90;;;12.10;99.90;;;;;;5055727;28;20453;-70
2021/05/09 02:00:11;;;;;;;1999.90;999.90;;;11.90;99.90;;;;;;5057590;28;20406;-70
2021/05/09 02:02:37;;;;;;;1999.90;999.90;;;11.90;99.90;;;;;;5054594;28;20172;-70
2021/05/09 02:05:05;;;;;;;1999.90;999.90;;;11.80;99.90;;;;;;5054914;28;20413;-69
2021/05/09 02:07:31;;;;;;;1999.90;999.90;;;11.80;99.90;;;;;;5054911;28;20186;-69
2021/05/09 02:09:56;;;;;;;1999.90;999.90;;;11.80;99.90;;;;;;5054497;28;20455;-68
2021/05/09 02:12:22;;;;;;;1999.90;999.90;;;11.80;99.90;;;;;;5054086;28;21594;-68
2021/05/09 02:14:48;;;;;;;1999.90;999.90;;;11.80;99.90;;;;;;5053748;28;20239;-67
2021/05/09 02:17:13;;;;;;;1999.90;999.90;;;11.90;99.90;;;;;;5054024;28;20270;-68
2021/05/09 02:19:39;;;;;;;1999.90;999.90;;;11.80;99.90;;;;;;5053895;28;20407;-69
2021/05/09 02:22:05;;;;;;;1999.90;999.90;;;11.80;99.90;;;;;;5053851;28;20168;-68
2021/05/09 02:24:30;;;;;;;1999.90;999.90;;;11.80;99.90;;;;;;5053757;28;20171;-68
2021/05/09 02:26:56;;;;;;;1999.90;999.90;;;11.70;99.90;;;;;;5053405;28;20176;-68
2021/05/09 02:29:21;;;;;;;1999.90;999.90;;;11.70;99.90;;;;;;5053641;28;20282;-68
2021/05/09 02:31:47;;;;;;;1999.90;999.90;;;11.70;99.90;;;;;;5053658;28;20642;-69
2021/05/09 02:34:13;;;;;;;1999.90;999.90;;;11.70;99.90;;;;;;5053613;28;20178;-68
2021/05/09 02:36:38;;;;;;;1999.90;999.90;;;11.60;99.90;;;;;;5053290;28;20653;-68
2021/05/09 02:39:04;;;;;;;1999.90;999.90;;;11.60;99.90;;;;;;5053436;28;20214;-70
2021/05/09 02:41:29;;;;;;;1999.90;999.90;;;11.50;99.90;;;;;;5054398;28;20174;-69
2021/05/09 02:43:56;;;;;;;1999.90;999.90;;;11.50;99.90;;;;;;5054690;28;20599;-70
2021/05/09 02:46:21;;;;;;;1999.90;999.90;;;11.60;99.90;;;;;;5053419;28;20225;-68
2021/05/09 02:48:47;;;;;;;1999.90;999.90;;;11.50;99.90;;;;;;5053268;28;20431;-68
2021/05/09 02:51:12;;;;;;;1999.90;999.90;;;11.50;99.90;;;;;;5053268;28;20214;-70
2021/05/09 02:53:38;;;;;;;1999.90;999.90;;;11.50;99.90;;;;;;5053977;28;20176;-69
2021/05/09 02:56:05;;;;;;;1999.90;999.90;;;11.50;99.90;;;;;;5053004;28;20270;-68
2021/05/09 02:58:31;;;;;;;1999.90;999.90;;;11.60;99.90;;;;;;5053031;28;20289;-68
2021/05/09 03:00:56;;;;;;;1999.90;999.90;;;11.50;99.90;;;;;;5053056;28;20421;-68
2021/05/09 03:03:22;;;;;;;1999.90;999.90;;;11.60;99.90;;;;;;5053152;28;20406;-69
2021/05/09 03:05:48;;;;;;;1999.90;999.90;;;11.50;99.90;;;;;;5054336;28;20257;-69
2021/05/09 03:08:13;;;;;;;1999.90;999.90;;;11.40;99.90;;;;;;5053975;28;20245;-70
2021/05/09 03:10:39;;;;;;;1999.90;999.90;;;11.40;99.90;;;;;;5054384;28;20687;-68
2021/05/09 03:13:05;;;;;;;1999.90;999.90;;;11.50;99.90;;;;;;5052858;28;20696;-69
2021/05/09 03:15:30;;;;;;;1999.90;999.90;;;11.40;99.90;;;;;;5052852;28;20456;-69
2021/05/09 03:17:56;;;;;;;1999.90;999.90;;;11.40;99.90;;;;;;5052942;28;20557;-68
2021/05/09 03:20:22;;;;;;;1999.90;999.90;;;11.30;99.90;;;;;;5052873;28;20269;-69
2021/05/09 03:22:47;;;;;;;1999.90;999.90;;;11.30;99.90;;;;;;5052786;28;20202;-69
2021/05/09 03:25:13;;;;;;;1999.90;999.90;;;11.40;99.90;;;;;;5053228;28;20305;-70
2021/05/09 03:27:39;;;;;;;1999.90;999.90;;;11.30;99.90;;;;;;5056830;28;20241;-70
2021/05/09 03:30:05;;;;;;;1999.90;999.90;;;11.40;99.90;;;;;;5056555;28;20456;-70
2021/05/09 03:32:31;;;;;;;1999.90;999.90;;;11.30;99.90;;;;;;5053570;28;20194;-68
2021/05/09 03:34:56;;;;;;;1999.90;999.90;;;11.30;99.90;;;;;;5053621;28;20434;-67
2021/05/09 03:37:22;;;;;;;1999.90;999.90;;;11.40;99.90;;;;;;5053295;28;20197;-69
2021/05/09 03:39:48;;;;;;;1999.90;999.90;;;11.30;99.90;;;;;;5052638;28;20171;-69
2021/05/09 03:42:13;;;;;;;1999.90;999.90;;;11.20;99.90;;;;;;5052873;28;20250;-68
2021/05/09 03:44:39;;;;;;;1999.90;999.90;;;11.20;99.90;;;;;;5052249;28;20172;-68
2021/05/09 03:47:05;;;;;;;1999.90;999.90;;;11.30;99.90;;;;;;5051972;28;20176;-68
2021/05/09 03:49:30;;;;;;;1999.90;999.90;;;11.20;99.90;;;;;;5052262;28;20198;-72
2021/05/09 03:51:56;;;;;;;1999.90;999.90;;;11.10;99.90;;;;;;5053751;28;20171;-70
2021/05/09 03:54:21;;;;;;;1999.90;999.90;;;11.10;99.90;;;;;;5053778;28;20175;-70
2021/05/09 03:56:47;;;;;;;1999.90;999.90;;;11.10;99.90;;;;;;5053246;28;20250;-68
2021/05/09 03:59:13;;;;;;;1999.90;999.90;;;11.10;99.90;;;;;;5052036;28;20733;-68
2021/05/09 04:01:39;;;;;;;1999.90;999.90;;;11.10;99.90;;;;;;5053241;28;20170;-70
2021/05/09 04:04:05;;;;;;;1999.90;999.90;;;11.10;99.90;;;;;;5052629;28;20169;-69
2021/05/09 04:06:30;;;;;;;1999.90;999.90;;;11.20;99.90;;;;;;5053499;28;20417;-70
2021/05/09 04:08:56;;;;;;;1999.90;999.90;;;11.20;99.90;;;;;;5053763;28;20951;-69
2021/05/09 04:11:21;;;;;;;1999.90;999.90;;;11.20;99.90;;;;;;5053383;28;20206;-70
2021/05/09 04:13:48;;;;;;;1999.90;999.90;;;11.20;99.90;;;;;;5052335;28;20167;-68
2021/05/09 04:16:15;;;;;;;1999.90;999.90;;;11.30;99.90;;;;;;5051529;28;20513;-69
2021/05/09 04:18:40;;;;;;;1999.90;999.90;;;11.30;99.90;;;;;;5051819;28;20433;-68
2021/05/09 04:21:06;;;;;;;1999.90;999.90;;;11.40;99.90;;;;;;5051792;28;20410;-70
2021/05/09 04:23:32;;;;;;;1999.90;999.90;;;11.40;99.90;;;;;;5051870;28;20521;-67
2021/05/09 04:25:58;;;;;;;1999.90;999.90;;;11.40;99.90;;;;;;5051493;28;20190;-68
2021/05/09 04:28:24;;;;;;;1999.90;999.90;;;11.40;99.90;;;;;;5051713;28;20430;-68
2021/05/09 04:30:52;;;;;;;1999.90;999.90;;;11.40;99.90;;;;;;5051642;28;20210;-68
2021/05/09 04:33:17;;;;;;;1999.90;999.90;;;11.40;99.90;;;;;;5051756;28;20405;-68
2021/05/09 04:35:45;;;;;;;1999.90;999.90;;;11.40;99.90;;;;;;5051453;28;20416;-69
2021/05/09 04:38:12;;;;;;;1999.90;999.90;;;11.40;99.90;;;;;;5051585;28;20186;-69
2021/05/09 04:40:38;;;;;;;1999.90;999.90;;;11.40;99.90;;;;;;5051656;28;20459;-68
2021/05/09 04:43:08;;;;;;;1999.90;999.90;;;11.50;99.90;;;;;;5051668;28;20467;-68
2021/05/09 04:45:34;;;;;;;1999.90;999.90;;;11.50;99.90;;;;;;5051308;28;20752;-68
2021/05/09 04:48:01;;;;;;;1999.90;999.90;;;11.50;99.90;;;;;;5051511;28;20947;-68
2021/05/09 04:50:26;;;;;;;1999.90;999.90;;;11.60;99.90;;;;;;5051926;28;20543;-70
2021/05/09 04:52:52;;;;;;;1999.90;999.90;;;11.60;99.90;;;;;;5052089;28;20489;-69
2021/05/09 04:55:18;;;;;;;1999.90;999.90;;;11.60;99.90;;;;;;5051233;28;20664;-69
2021/05/09 04:57:44;;;;;;;1999.90;999.90;;;11.70;99.90;;;;;;5051360;28;20447;-68
2021/05/09 05:00:10;;;;;;;1999.90;999.90;;;11.80;99.90;;;;;;5051419;28;20207;-68
2021/05/09 05:02:36;;;;;;;1999.90;999.90;;;11.80;99.90;;;;;;5051447;28;20203;-68
2021/05/09 05:05:01;;;;;;;1999.90;999.90;;;12.00;99.90;;;;;;5051078;28;20820;-69
2021/05/09 05:07:27;;;;;;;1999.90;999.90;;;12.00;99.90;;;;;;5051324;28;20198;-68
2021/05/09 05:09:52;;;;;;;1999.90;999.90;;;12.10;99.90;;;;;;5050073;28;20206;-68
2021/05/09 05:12:18;;;;;;;1999.90;999.90;;;12.10;99.90;;;;;;5051294;28;20174;-68
2021/05/09 05:14:44;;;;;;;1999.90;999.90;;;12.20;99.90;;;;;;5051108;28;20168;-69
2021/05/09 05:17:10;;;;;;;1999.90;999.90;;;12.20;99.90;;;;;;5054473;28;20164;-69
2021/05/09 05:19:35;;;;;;;1999.90;999.90;;;12.30;99.90;;;;;;5055008;28;20438;-69
2021/05/09 05:22:02;;;;;;;1999.90;999.90;;;12.40;99.90;;;;;;5054985;28;20926;-68
2021/05/09 05:24:28;;;;;;;1999.90;999.90;;;12.60;99.90;;;;;;5054924;28;20179;-69
2021/05/09 05:26:54;;;;;;;1999.90;999.90;;;12.70;99.90;;;;;;5054619;28;20410;-68
2021/05/09 05:29:20;;;;;;;1999.90;999.90;;;12.80;99.90;;;;;;5054732;28;20172;-69
2021/05/09 05:31:46;;;;;;;1999.90;999.90;;;12.90;99.90;;;;;;5054863;28;20460;-68
2021/05/09 05:34:12;;;;;;;1999.90;999.90;;;13.00;99.90;;;;;;5054700;28;20222;-67
2021/05/09 05:36:38;;;;;;;1999.90;999.90;;;13.00;99.90;;;;;;5055470;28;20535;-69
2021/05/09 05:39:06;;;;;;;1999.90;999.90;;;13.10;99.90;;;;;;5056858;28;20441;-69
2021/05/09 05:41:31;;;;;;;1999.90;999.90;;;13.20;99.90;;;;;;5054538;28;20453;-67
2021/05/09 05:43:57;;;;;;;1999.90;999.90;;;13.20;99.90;;;;;;5054503;28;20447;-68
2021/05/09 05:46:24;;;;;;;1999.90;999.90;;;13.30;99.90;;;;;;5054449;28;20183;-69
2021/05/09 05:48:49;;;;;;;1999.90;999.90;;;13.30;99.90;;;;;;5055638;28;20485;-67
2021/05/09 05:51:15;;;;;;;1999.90;999.90;;;13.50;99.90;;;;;;5054381;28;20940;-68
2021/05/09 05:53:41;;;;;;;1999.90;999.90;;;13.50;99.90;;;;;;5054620;28;20180;-68
2021/05/09 05:56:06;;;;;;;1999.90;999.90;;;13.60;99.90;;;;;;5054321;28;20190;-69
2021/05/09 05:58:32;;;;;;;1999.90;999.90;;;13.70;99.90;;;;;;5054703;28;20241;-68
2021/05/09 06:00:57;;;;;;;1999.90;999.90;;;13.90;99.90;;;;;;5054295;28;20188;-68
2021/05/09 06:03:23;;;;;;;1999.90;999.90;;;14.00;99.90;;;;;;5055564;28;20173;-70
2021/05/09 06:05:50;;;;;;;1999.90;999.90;;;14.10;99.90;;;;;;5055299;28;20174;-68
2021/05/09 06:08:16;;;;;;;1999.90;999.90;;;14.20;99.90;;;;;;5055951;28;20194;-69
2021/05/09 06:10:42;;;;;;;1999.90;999.90;;;14.30;99.90;;;;;;5054122;28;20490;-68
2021/05/09 06:13:08;;;;;;;1999.90;999.90;;;14.40;99.90;;;;;;5054064;28;20408;-68
2021/05/09 06:15:34;;;;;;;1999.90;999.90;;;14.60;99.90;;;;;;5055673;28;20411;-69
2021/05/09 06:17:59;;;;;;;1999.90;999.90;;;14.80;99.90;;;;;;5055299;28;20183;-69
2021/05/09 06:20:26;;;;;;;1999.90;999.90;;;14.90;99.90;;;;;;5054717;28;20222;-69
2021/05/09 06:22:56;;;;;;;1999.90;999.90;;;15.00;99.90;;;;;;5053856;28;20602;-69
2021/05/09 06:25:22;;;;;;;1999.90;999.90;;;15.10;99.90;;;;;;5054275;28;20408;-69
2021/05/09 06:27:47;;;;;;;1999.90;999.90;;;15.30;99.90;;;;;;5055596;28;20433;-68
2021/05/09 06:30:13;;;;;;;1999.90;999.90;;;15.40;99.90;;;;;;5055495;28;20193;-69
2021/05/09 06:32:39;;;;;;;1999.90;999.90;;;15.50;99.90;;;;;;5055306;28;20660;-69
2021/05/09 06:35:05;;;;;;;1999.90;999.90;;;15.50;99.90;;;;;;5053815;28;20406;-68
2021/05/09 06:37:32;;;;;;;1999.90;999.90;;;15.60;99.90;;;;;;5053508;28;20668;-68
2021/05/09 06:39:58;;;;;;;1999.90;999.90;;;15.70;99.90;;;;;;5053568;28;20497;-68
2021/05/09 06:42:23;;;;;;;1999.90;999.90;;;15.90;99.90;;;;;;5053471;28;20435;-68
2021/05/09 06:44:55;;;;;;;1999.90;999.90;;;16.10;99.90;;;;;;5053294;28;20815;-67
2021/05/09 06:47:21;;;;;;;1999.90;999.90;;;16.20;99.90;;;;;;5053465;28;20197;-68
2021/05/09 06:49:46;;;;;;;1999.90;999.90;;;16.30;99.90;;;;;;5053299;28;20443;-68
2021/05/09 06:52:12;;;;;;;1999.90;999.90;;;16.50;99.90;;;;;;5053333;28;20194;-68
2021/05/09 06:54:37;;;;;;;1999.90;999.90;;;16.70;99.90;;;;;;5053264;28;20168;-68
2021/05/09 06:57:03;;;;;;;1999.90;999.90;;;16.90;99.90;;;;;;5052821;28;20230;-68
2021/05/09 06:59:30;;;;;;;1999.90;999.90;;;16.90;99.90;;;;;;5053094;28;20167;-68
2021/05/09 07:01:56;;;;;;;1999.90;999.90;;;17.00;99.90;;;;;;5053122;28;20908;-68
2021/05/09 07:04:22;;;;;;;1999.90;999.90;;;17.00;99.90;;;;;;5053060;28;20406;-68
2021/05/09 07:06:47;;;;;;;1999.90;999.90;;;17.10;99.90;;;;;;5053528;28;20402;-69
2021/05/09 07:09:13;;;;;;;1999.90;999.90;;;17.30;99.90;;;;;;5054086;28;20188;-68
2021/05/09 07:11:39;;;;;;;1999.90;999.90;;;17.50;99.90;;;;;;5052998;28;20164;-67
2021/05/09 07:14:05;;;;;;;1999.90;999.90;;;17.70;99.90;;;;;;5052849;28;20187;-67
2021/05/09 07:16:32;;;;;;;1999.90;999.90;;;17.90;99.90;;;;;;5052524;28;20400;-68
2021/05/09 07:18:59;;;;;;;1999.90;999.90;;;18.10;99.90;;;;;;5052718;28;20517;-68
2021/05/09 07:21:28;;;;;;;1999.90;999.90;;;18.30;99.90;;;;;;5053071;28;20414;-68
2021/05/09 07:23:53;;;;;;;1999.90;999.90;;;18.40;99.90;;;;;;5054320;28;20418;-69
2021/05/09 07:26:19;;;;;;;1999.90;999.90;;;18.50;99.90;;;;;;5053191;28;20444;-69
2021/05/09 07:28:46;;;;;;;1999.90;999.90;;;18.70;99.90;;;;;;5053020;28;20582;-69
2021/05/09 07:31:13;;;;;;;1999.90;999.90;;;18.90;99.90;;;;;;5052776;28;20254;-68
2021/05/09 07:33:39;;;;;;;1999.90;999.90;;;19.10;99.90;;;;;;5052532;28;20426;-68
2021/05/09 07:36:05;;;;;;;1999.90;999.90;;;19.40;99.90;;;;;;5052249;28;20412;-68
2021/05/09 07:38:30;;;;;;;1999.90;999.90;;;19.60;99.90;;;;;;5052963;28;20427;-69
2021/05/09 07:40:56;;;;;;;1999.90;999.90;;;19.90;99.90;;;;;;5053587;28;20166;-69
2021/05/09 07:43:21;;;;;;;1999.90;999.90;;;20.10;99.90;;;;;;5053654;28;20179;-68
2021/05/09 07:45:47;;;;;;;1999.90;999.90;;;20.10;99.90;;;;;;5052163;28;20206;-67
2021/05/09 07:48:13;;;;;;;1999.90;999.90;;;20.20;99.90;;;;;;5052514;28;20241;-67
2021/05/09 07:50:40;;;;;;;1999.90;999.90;;;20.30;99.90;;;;;;5052164;28;20197;-68
2021/05/09 07:53:06;;;;;;;1999.90;999.90;;;20.50;99.90;;;;;;5052204;28;20169;-68
2021/05/09 07:55:32;;;;;;;1999.90;999.90;;;20.80;99.90;;;;;;5052024;28;20483;-68
2021/05/09 07:57:58;;;;;;;1999.90;999.90;;;20.90;99.90;;;;;;5051934;28;20441;-68
2021/05/09 08:00:24;;;;;;;1999.90;999.90;;;20.90;99.90;;;;;;5052083;28;20199;-68
2021/05/09 08:02:50;;;;;;;1999.90;999.90;;;20.90;99.90;;;;;;5052223;28;20410;-68
2021/05/09 08:05:18;;;;;;;1999.90;999.90;;;21.10;99.90;;;;;;5051779;28;20408;-67
2021/05/09 08:07:54;;;;;;;1999.90;999.90;;;21.30;99.90;;;;;;5051155;28;20538;-68
2021/05/09 08:10:22;;;;;;;1999.90;999.90;;;21.30;99.90;;;;;;5049610;28;20465;-68
2021/05/09 08:12:48;;;;;;;1999.90;999.90;;;21.30;99.90;;;;;;5051125;28;20413;-67
2021/05/09 08:15:15;;;;;;;1999.90;999.90;;;21.40;99.90;;;;;;5051073;28;20399;-67
2021/05/09 08:17:40;;;;;;;1999.90;999.90;;;21.50;99.90;;;;;;5051278;28;20418;-68
2021/05/09 08:20:07;;;;;;;1999.90;999.90;;;21.70;99.90;;;;;;5047915;28;20786;-67
2021/05/09 08:22:33;;;;;;;1999.90;999.90;;;22.10;99.90;;;;;;5051299;28;20575;-67
2021/05/09 08:24:59;;;;;;;1999.90;999.90;;;22.30;99.90;;;;;;5050923;28;20495;-68
2021/05/09 08:27:28;;;;;;;1999.90;999.90;;;22.50;99.90;;;;;;5051896;28;20439;-68
2021/05/09 08:29:54;;;;;;;1999.90;999.90;;;22.80;99.90;;;;;;5050946;28;20493;-67
2021/05/09 08:32:19;;;;;;;1999.90;999.90;;;23.10;99.90;;;;;;5051633;28;20815;-67
2021/05/09 08:34:45;;;;;;;1999.90;999.90;;;23.30;99.90;;;;;;5051598;28;20170;-68
2021/05/09 08:37:11;;;;;;;1999.90;999.90;;;23.30;99.90;;;;;;5051655;28;20162;-67
2021/05/09 08:39:36;;;;;;;1999.90;999.90;;;23.30;99.90;;;;;;5051610;28;20216;-67
2021/05/09 08:42:02;;;;;;;1999.90;999.90;;;23.40;99.90;;;;;;5052080;28;20180;-68
2021/05/09 08:44:30;;;;;;;1999.90;999.90;;;23.50;99.90;;;;;;5051809;28;20182;-68
2021/05/09 08:46:56;;;;;;;1999.90;999.90;;;23.60;99.90;;;;;;5051295;28;20198;-68
2021/05/09 08:49:22;;;;;;;1999.90;999.90;;;23.40;99.90;;;;;;5051543;28;20441;-67
2021/05/09 08:51:48;;;;;;;1999.90;999.90;;;23.40;99.90;;;;;;5054476;28;20193;-68
2021/05/09 08:54:13;;;;;;;1999.90;999.90;;;23.30;99.90;;;;;;5056852;28;20929;-69
2021/05/09 08:56:39;;;;;;;1999.90;999.90;;;23.40;99.90;;;;;;5055341;28;20404;-67
2021/05/09 08:59:05;;;;;;;1999.90;999.90;;;23.20;99.90;;;;;;5055338;28;20191;-68
2021/05/09 09:01:31;;;;;;;1999.90;999.90;;;23.20;99.90;;;;;;5055616;28;20167;-69
2021/05/09 09:03:57;;;;;;;1999.90;999.90;;;23.10;99.90;;;;;;5057445;28;20885;-68
2021/05/09 09:06:46;;;;;;;1999.90;999.90;;;23.00;99.90;;;;;;5055903;28;20397;-67
2021/05/09 09:09:23;;;;;;;1999.90;999.90;;;23.00;99.90;;;;;;5055222;28;20421;-67
2021/05/09 09:12:00;;;;;;;1999.90;999.90;;;23.20;99.90;;;;;;5055331;28;20845;-68
2021/05/09 09:14:26;;;;;;;1999.90;999.90;;;23.20;99.90;;;;;;5055556;28;20380;-68
2021/05/09 09:17:13;;;;;;;1999.90;999.90;;;23.20;99.90;;;;;;5056708;28;20434;-67
2021/05/09 09:19:57;;;;;;;1999.90;999.90;;;23.00;99.90;;;;;;5055533;28;20453;-68
2021/05/09 09:22:23;;;;;;;1999.90;999.90;;;23.10;99.90;;;;;;5055079;28;20391;-68
2021/05/09 09:25:05;;;;;;;1999.90;999.90;;;23.20;99.90;;;;;;5054657;28;20877;-67
2021/05/09 09:27:31;;;;;;;1999.90;999.90;;;23.40;99.90;;;;;;5054828;28;20218;-67
2021/05/09 09:30:01;;;;;;;1999.90;999.90;;;23.50;99.90;;;;;;5054840;28;20486;-68
2021/05/09 09:32:27;;;;;;;1999.90;999.90;;;23.60;99.90;;;;;;5055289;28;20168;-67
2021/05/09 09:34:52;;;;;;;1999.90;999.90;;;23.80;99.90;;;;;;5054473;28;20443;-67
2021/05/09 09:37:19;;;;;;;1999.90;999.90;;;24.00;99.90;;;;;;5055032;28;20261;-67
2021/05/09 09:39:49;;;;;;;1999.90;999.90;;;24.00;99.90;;;;;;5054659;28;20171;-67
2021/05/09 09:42:16;;;;;;;1999.90;999.90;;;24.10;99.90;;;;;;5051653;28;20398;-68
2021/05/09 09:44:42;;;;;;;1999.90;999.90;;;24.00;99.90;;;;;;5049634;28;20413;-68
2021/05/09 09:47:07;;;;;;;1999.90;999.90;;;23.90;99.90;;;;;;5053873;28;20384;-68
2021/05/09 09:49:38;;;;;;;1999.90;999.90;;;23.90;99.90;;;;;;5052177;28;20655;-68
2021/05/09 09:52:06;;;;;;;1999.90;999.90;;;24.20;99.90;;;;;;5053955;28;20201;-68
2021/05/09 09:54:46;;;;;;;1999.90;999.90;;;24.40;99.90;;;;;;5052763;28;20414;-67
2021/05/09 09:57:29;;;;;;;1999.90;999.90;;;24.60;99.90;;;;;;5051628;28;20438;-69
2021/05/09 10:00:11;;;;;;;1999.90;999.90;;;25.10;99.90;;;;;;5052440;28;20941;-68
2021/05/09 10:02:41;;;;;;;1999.90;999.90;;;25.20;99.90;;;;;;5051064;28;20396;-68
2021/05/09 10:05:07;;;;;;;1999.90;999.90;;;25.50;99.90;;;;;;5051432;28;20361;-68
2021/05/09 10:07:33;;;;;;;1999.90;999.90;;;25.60;99.90;;;;;;5052535;28;20396;-71
2021/05/09 10:10:00;;;;;;;1999.90;999.90;;;25.90;99.90;;;;;;5052326;28;20427;-72
2021/05/09 10:12:26;;;;;;;1999.90;999.90;;;26.10;99.90;;;;;;5052268;28;20485;-69
2021/05/09 10:14:52;;;;;;;1999.90;999.90;;;26.20;99.90;;;;;;5052084;28;20861;-70
2021/05/09 10:17:22;;;;;;;1999.90;999.90;;;26.40;99.90;;;;;;5051272;28;20233;-68
2021/05/09 10:19:48;;;;;;;1999.90;999.90;;;26.40;99.90;;;;;;5050948;28;20410;-67
2021/05/09 10:22:31;;;;;;;1999.90;999.90;;;26.50;99.90;;;;;;5051649;28;20417;-67
2021/05/09 10:24:58;;;;;;;1999.90;999.90;;;26.60;99.90;;;;;;5044235;28;20410;-68
2021/05/09 10:27:40;;;;;;;1999.90;999.90;;;26.50;99.90;;;;;;5051287;28;20419;-68
2021/05/09 10:30:11;;;;;;;1999.90;999.90;;;26.30;99.90;;;;;;5031877;28;20450;-67
2021/05/09 10:32:36;;;;;;;1999.90;999.90;;;26.00;99.90;;;;;;5030609;28;20476;-68
2021/05/09 10:35:05;;;;;;;1999.90;999.90;;;26.00;99.90;;;;;;5040878;28;20509;-67
2021/05/09 10:37:37;;;;;;;1999.90;999.90;;;25.80;99.90;;;;;;5051443;28;20237;-67
2021/05/09 10:40:18;;;;;;;1999.90;999.90;;;25.70;99.90;;;;;;5051639;28;20376;-67
2021/05/09 10:42:44;;;;;;;1999.90;999.90;;;25.80;99.90;;;;;;5051078;28;20469;-67
2021/05/09 10:45:10;;;;;;;1999.90;999.90;;;25.70;99.90;;;;;;5051448;28;20456;-67
2021/05/09 10:47:36;;;;;;;1999.90;999.90;;;25.80;99.90;;;;;;5051439;28;20451;-68
2021/05/09 10:50:24;;;;;;;1999.90;999.90;;;25.80;99.90;;;;;;5050950;28;20207;-67
2021/05/09 10:52:51;;;;;;;1999.90;999.90;;;25.80;99.90;;;;;;5051339;28;20633;-67
2021/05/09 10:55:35;;;;;;;1999.90;999.90;;;25.70;99.90;;;;;;5051101;28;20393;-67
2021/05/09 10:58:04;;;;;;;1999.90;999.90;;;25.70;99.90;;;;;;5051152;28;20978;-68
2021/05/09 11:01:20;;;;;;;1999.90;999.90;;;25.70;99.90;;;;;;5051473;28;20467;-67
2021/05/09 11:03:52;;;;;;;1999.90;999.90;;;25.60;99.90;;;;;;5047526;28;20506;-67
2021/05/09 11:06:17;;;;;;;1999.90;999.90;;;25.50;99.90;;;;;;5051102;28;20406;-67
2021/05/09 11:08:43;;;;;;;1999.90;999.90;;;25.60;99.90;;;;;;5051010;28;20432;-68
2021/05/09 11:11:13;;;;;;;1999.90;999.90;;;25.50;99.90;;;;;;5050639;28;20324;-67
2021/05/09 11:14:00;;;;;;;1999.90;999.90;;;25.50;99.90;;;;;;5050775;28;20168;-67
2021/05/09 11:16:31;;;;;;;1999.90;999.90;;;25.60;99.90;;;;;;5050818;28;20464;-68
2021/05/09 11:19:05;;;;;;;1999.90;999.90;;;25.80;99.90;;;;;;5050424;28;20401;-67
2021/05/09 11:21:36;;;;;;;1999.90;999.90;;;26.10;99.90;;;;;;5050993;28;20454;-67
2021/05/09 11:24:04;;;;;;;1999.90;999.90;;;26.30;99.90;;;;;;5050983;28;20839;-68
2021/05/09 11:26:39;;;;;;;1999.90;999.90;;;26.40;99.90;;;;;;5049946;28;20449;-67
2021/05/09 11:29:12;;;;;;;1999.90;999.90;;;26.40;99.90;;;;;;5050619;28;20579;-67
2021/05/09 11:31:40;;;;;;;1999.90;999.90;;;26.60;99.90;;;;;;5050744;28;20516;-67
2021/05/09 11:34:07;;;;;;;1999.90;999.90;;;26.60;99.90;;;;;;5050447;28;20475;-67
2021/05/09 11:36:34;;;;;;;1999.90;999.90;;;26.80;99.90;;;;;;5050399;28;20400;-67
2021/05/09 11:39:15;;;;;;;1999.90;999.90;;;27.00;99.90;;;;;;5050534;28;20418;-68
2021/05/09 11:42:04;;;;;;;1999.90;999.90;;;26.90;99.90;;;;;;5050327;28;20397;-67
2021/05/09 11:44:41;;;;;;;1999.90;999.90;;;26.80;99.90;;;;;;5050551;28;20399;-67
2021/05/09 11:47:25;;;;;;;1999.90;999.90;;;26.80;99.90;;;;;;5050255;28;20414;-67
2021/05/09 11:49:54;;;;;;;1999.90;999.90;;;26.70;99.90;;;;;;5050345;28;20453;-67
2021/05/09 11:52:22;;;;;;;1999.90;999.90;;;26.90;99.90;;;;;;5050457;28;20377;-68
2021/05/09 11:55:08;;;;;;;1999.90;999.90;;;27.50;99.90;;;;;;5049700;28;20414;-68
2021/05/09 11:57:34;;;;;;;1999.90;999.90;;;28.00;99.90;;;;;;5050170;28;20476;-67
2021/05/09 12:00:11;;;;;;;1999.90;999.90;;;28.10;99.90;;;;;;5050198;28;20442;-67